Time;durP1;ratioP1;P1;durP2;ratioP2;P2;SDS_P1;SDS_P2;PMS_P1;PMS_P2;Temp;Humidity;BMP_temperature;BMP_pressure;BME280_temperature;BME280_humidity;BME280_pressure;Samples;Min_cycle;Max_cycle;Signal;HPM_P1;HPM_P2
2022/03/11 00:02:03;;;;;;;13.75;8.13;;;8.10;81.40;;;;;;4976500;28;20069;-86
2022/03/11 00:04:28;;;;;;;14.77;7.80;;;8.10;81.40;;;;;;4976533;28;20030;-85
2022/03/11 00:06:54;;;;;;;13.90;7.88;;;8.10;81.40;;;;;;4976514;28;20034;-86
2022/03/11 00:09:20;;;;;;;12.77;7.63;;;8.10;81.40;;;;;;4993854;28;20026;-85
2022/03/11 00:11:45;;;;;;;13.73;7.82;;;8.10;81.40;;;;;;4976383;28;20093;-86
2022/03/11 00:14:11;;;;;;;13.60;8.02;;;8.10;81.50;;;;;;4976431;28;20023;-85
2022/03/11 00:16:37;;;;;;;10.63;7.00;;;8.00;81.30;;;;;;4994081;28;20026;-86
2022/03/11 00:19:02;;;;;;;11.95;7.30;;;8.00;81.40;;;;;;4976063;28;20050;-86
2022/03/11 00:21:28;;;;;;;11.77;7.55;;;8.00;81.40;;;;;;4993760;28;20073;-86
2022/03/11 00:23:54;;;;;;;12.88;7.10;;;8.00;81.40;;;;;;4976362;28;20022;-86
2022/03/11 00:26:19;;;;;;;10.75;7.28;;;8.00;81.40;;;;;;4976363;28;20029;-86
2022/03/11 00:28:45;;;;;;;9.57;6.88;;;8.00;81.40;;;;;;4993694;28;20096;-85
2022/03/11 00:31:11;;;;;;;10.85;6.68;;;8.00;81.40;;;;;;4976305;28;20027;-86
2022/03/11 00:33:36;;;;;;;9.48;6.82;;;8.00;82.20;;;;;;4976234;28;20141;-86
2022/03/11 00:36:02;;;;;;;11.52;7.72;;;7.90;81.30;;;;;;4976286;28;20133;-86
2022/03/11 00:38:28;;;;;;;10.00;6.75;;;7.90;81.40;;;;;;4976171;28;20034;-86
2022/03/11 00:40:56;;;;;;;10.57;6.70;;;7.90;81.40;;;;;;4993612;28;20496;-86
2022/03/11 00:43:26;;;;;;;13.82;6.80;;;7.90;81.40;;;;;;4976131;28;20057;-86
2022/03/11 00:45:52;;;;;;;11.48;6.40;;;7.90;81.40;;;;;;4976186;28;20023;-86
2022/03/11 00:48:18;;;;;;;8.05;6.03;;;7.90;81.40;;;;;;4976046;28;20054;-86
2022/03/11 00:50:44;;;;;;;11.57;6.57;;;7.90;81.40;;;;;;4993577;28;20031;-86
2022/03/11 00:53:10;;;;;;;11.13;6.85;;;7.90;81.50;;;;;;4993517;28;20106;-86
2022/03/11 00:55:35;;;;;;;12.18;7.00;;;7.80;81.40;;;;;;4976515;28;20029;-86
2022/03/11 00:58:01;;;;;;;9.70;6.90;;;7.80;81.50;;;;;;4997339;28;20026;-86
2022/03/11 01:00:27;;;;;;;9.80;6.35;;;7.90;81.50;;;;;;4979684;28;20402;-86
2022/03/11 01:02:53;;;;;;;10.88;6.93;;;7.80;81.40;;;;;;4997521;28;20121;-86
2022/03/11 01:05:22;;;;;;;10.98;6.85;;;7.80;81.50;;;;;;4979636;28;20030;-86
2022/03/11 01:07:48;;;;;;;11.82;6.88;;;7.80;81.50;;;;;;4979644;28;20033;-86
2022/03/11 01:10:14;;;;;;;11.60;6.65;;;7.80;81.40;;;;;;4979607;28;20022;-86
2022/03/11 01:12:40;;;;;;;9.70;6.30;;;7.80;81.60;;;;;;4996988;28;20381;-86
2022/03/11 01:15:07;;;;;;;10.95;6.97;;;7.70;81.40;;;;;;4979585;28;20030;-86
2022/03/11 01:17:33;;;;;;;11.30;7.28;;;7.70;81.40;;;;;;4997144;28;20449;-86
2022/03/11 01:19:59;;;;;;;11.73;6.53;;;7.70;81.50;;;;;;4979230;28;20050;-86
2022/03/11 01:22:25;;;;;;;10.20;6.45;;;7.70;81.50;;;;;;4979401;28;20034;-86
2022/03/11 01:24:51;;;;;;;10.80;5.95;;;7.70;81.50;;;;;;4979545;28;20029;-86
2022/03/11 01:27:16;;;;;;;11.23;7.00;;;7.70;81.50;;;;;;4997071;28;20514;-86
2022/03/11 01:29:42;;;;;;;8.95;5.95;;;7.70;81.50;;;;;;4979275;28;20073;-86
2022/03/11 01:32:08;;;;;;;14.35;6.70;;;7.70;81.50;;;;;;4979296;28;20030;-86
2022/03/11 01:34:34;;;;;;;10.00;6.13;;;7.70;81.50;;;;;;4979127;28;20036;-86
2022/03/11 01:36:59;;;;;;;10.43;6.35;;;7.60;81.50;;;;;;4979270;28;20081;-86
2022/03/11 01:39:25;;;;;;;11.10;6.55;;;7.60;81.60;;;;;;4979212;28;20027;-86
2022/03/11 01:41:51;;;;;;;12.32;6.43;;;7.60;81.60;;;;;;4996470;28;20026;-86
2022/03/11 01:44:16;;;;;;;9.23;5.88;;;7.60;81.60;;;;;;4979114;28;20431;-86
2022/03/11 01:46:42;;;;;;;9.75;6.28;;;7.60;81.60;;;;;;4979123;28;20113;-85
2022/03/11 01:49:09;;;;;;;9.05;5.70;;;7.60;81.60;;;;;;4978919;28;20032;-86
2022/03/11 01:51:38;;;;;;;12.95;5.60;;;7.60;81.60;;;;;;4996452;28;20019;-85
2022/03/11 01:54:04;;;;;;;11.38;5.90;;;7.50;81.60;;;;;;4996398;28;20366;-85
2022/03/11 01:56:31;;;;;;;9.90;6.10;;;7.50;81.60;;;;;;4996598;28;20085;-86
2022/03/11 01:58:57;;;;;;;9.98;6.13;;;7.50;81.60;;;;;;4978818;28;20031;-86
2022/03/11 02:01:24;;;;;;;10.10;5.70;;;7.50;81.70;;;;;;4996185;28;20073;-86
2022/03/11 02:03:50;;;;;;;9.32;5.88;;;7.50;81.70;;;;;;4978678;28;20023;-85
2022/03/11 02:06:18;;;;;;;9.77;6.07;;;7.50;81.60;;;;;;4978535;28;20437;-85
2022/03/11 02:08:44;;;;;;;9.90;6.07;;;7.40;81.60;;;;;;4977658;28;20033;-86
2022/03/11 02:11:13;;;;;;;9.32;5.93;;;7.40;81.60;;;;;;4996188;28;20470;-86
2022/03/11 02:13:46;;;;;;;11.18;5.80;;;7.40;81.60;;;;;;4978451;28;20486;-86
2022/03/11 02:16:14;;;;;;;10.03;6.17;;;7.40;81.60;;;;;;4978513;28;20022;-86
2022/03/11 02:18:40;;;;;;;7.85;5.68;;;7.40;81.60;;;;;;4978057;28;20717;-86
2022/03/11 02:21:07;;;;;;;8.13;5.95;;;7.40;81.70;;;;;;4978267;28;20441;-86
2022/03/11 02:23:43;;;;;;;9.30;5.72;;;7.40;81.70;;;;;;4995825;28;20466;-86
2022/03/11 02:26:09;;;;;;;10.20;6.50;;;7.40;81.70;;;;;;4978345;28;20036;-86
2022/03/11 02:28:34;;;;;;;11.18;6.10;;;7.40;81.70;;;;;;4978150;28;20022;-86
2022/03/11 02:31:01;;;;;;;8.70;5.38;;;7.30;81.70;;;;;;4978191;28;20076;-86
2022/03/11 02:33:27;;;;;;;9.15;6.00;;;7.40;81.80;;;;;;4978104;28;20030;-86
2022/03/11 02:35:52;;;;;;;10.00;5.80;;;7.30;81.70;;;;;;4978185;28;20026;-85
2022/03/11 02:38:18;;;;;;;9.27;5.50;;;7.30;81.70;;;;;;4978107;28;20030;-85
2022/03/11 02:40:44;;;;;;;8.57;5.30;;;7.30;82.50;;;;;;4977933;28;20026;-86
2022/03/11 02:43:09;;;;;;;8.30;6.00;;;7.30;81.70;;;;;;4995421;28;20019;-86
2022/03/11 02:45:35;;;;;;;10.60;5.43;;;7.30;81.80;;;;;;4977926;28;20505;-86
2022/03/11 02:48:01;;;;;;;12.20;5.93;;;7.30;81.70;;;;;;4977857;28;20436;-86
2022/03/11 02:50:26;;;;;;;9.13;6.00;;;7.30;81.80;;;;;;4977770;28;20382;-86
2022/03/11 02:52:52;;;;;;;8.20;5.38;;;7.30;81.80;;;;;;4995558;28;20022;-86
2022/03/11 02:55:18;;;;;;;9.23;5.93;;;7.20;81.80;;;;;;4995523;28;20030;-86
2022/03/11 02:57:43;;;;;;;10.65;6.22;;;7.20;81.70;;;;;;4995078;28;20050;-86
2022/03/11 03:00:09;;;;;;;9.77;5.90;;;7.20;81.80;;;;;;4977721;28;20023;-86
2022/03/11 03:02:36;;;;;;;9.75;5.82;;;7.20;81.80;;;;;;4977528;28;20073;-86
2022/03/11 03:05:01;;;;;;;7.82;5.85;;;7.20;81.80;;;;;;4977609;28;20117;-86
2022/03/11 03:07:27;;;;;;;10.73;5.93;;;7.20;81.80;;;;;;4977632;28;20054;-86
2022/03/11 03:09:53;;;;;;;9.23;5.80;;;7.20;81.70;;;;;;4977532;28;20023;-86
2022/03/11 03:12:18;;;;;;;6.80;5.22;;;7.20;81.70;;;;;;4977371;28;20030;-86
2022/03/11 03:14:44;;;;;;;7.93;5.47;;;7.20;81.70;;;;;;4977263;28;20027;-86
2022/03/11 03:17:10;;;;;;;8.38;5.47;;;7.10;81.70;;;;;;4977261;28;20026;-86
2022/03/11 03:19:36;;;;;;;9.38;5.95;;;7.10;81.60;;;;;;4976856;28;20046;-86
2022/03/11 03:22:03;;;;;;;9.63;6.13;;;7.10;81.60;;;;;;4994677;28;20398;-86
2022/03/11 03:24:29;;;;;;;9.63;5.47;;;7.10;81.60;;;;;;4977146;28;20018;-86
2022/03/11 03:26:56;;;;;;;7.20;5.05;;;7.10;81.80;;;;;;4977185;28;20202;-86
2022/03/11 03:29:22;;;;;;;8.18;5.47;;;7.10;81.60;;;;;;4977034;28;20505;-86
2022/03/11 03:31:48;;;;;;;9.60;5.78;;;7.10;81.60;;;;;;4977074;28;20656;-86
2022/03/11 03:34:14;;;;;;;10.40;6.20;;;7.10;81.60;;;;;;4977161;28;20033;-86
2022/03/11 03:36:39;;;;;;;7.38;5.68;;;7.10;81.50;;;;;;4976979;28;20081;-86
2022/03/11 03:39:05;;;;;;;8.27;5.20;;;7.10;81.60;;;;;;4976976;28;20037;-86
2022/03/11 03:41:31;;;;;;;10.02;5.75;;;7.10;81.90;;;;;;4994626;28;20499;-86
2022/03/11 03:43:56;;;;;;;7.82;5.43;;;7.10;81.50;;;;;;4976927;28;20044;-86
2022/03/11 03:46:22;;;;;;;10.40;5.65;;;7.00;81.50;;;;;;4976914;28;20132;-86
2022/03/11 03:48:48;;;;;;;8.60;5.55;;;7.00;81.50;;;;;;4976768;28;20026;-86
2022/03/11 03:51:13;;;;;;;6.90;5.28;;;7.00;81.50;;;;;;4977053;28;20033;-86
2022/03/11 03:53:39;;;;;;;9.38;5.47;;;7.00;81.50;;;;;;4976790;28;20076;-86
2022/03/11 03:56:05;;;;;;;7.15;4.93;;;7.10;81.60;;;;;;4994197;28;20458;-86
2022/03/11 03:58:31;;;;;;;8.23;5.70;;;7.00;81.50;;;;;;4976924;28;20035;-86
2022/03/11 04:00:56;;;;;;;7.65;5.10;;;7.00;81.60;;;;;;4993884;28;20022;-86
2022/03/11 04:03:22;;;;;;;8.25;5.20;;;7.00;81.50;;;;;;4976523;28;20022;-86
2022/03/11 04:05:48;;;;;;;8.75;5.20;;;7.00;81.50;;;;;;4993966;28;20034;-87
2022/03/11 04:08:13;;;;;;;7.70;5.22;;;7.00;81.50;;;;;;4976544;28;20123;-86
2022/03/11 04:10:39;;;;;;;8.45;5.18;;;7.00;81.60;;;;;;4976439;28;20022;-86
2022/03/11 04:13:05;;;;;;;8.10;5.68;;;6.90;81.60;;;;;;4976454;28;20030;-86
2022/03/11 04:15:31;;;;;;;9.65;5.80;;;6.90;81.50;;;;;;4976450;28;20037;-86
2022/03/11 04:17:57;;;;;;;8.15;5.18;;;6.90;81.60;;;;;;4976371;28;20398;-86
2022/03/11 04:20:22;;;;;;;8.95;5.13;;;6.90;81.60;;;;;;4993641;28;20050;-86
2022/03/11 04:22:48;;;;;;;7.75;5.47;;;6.90;81.60;;;;;;4976386;28;20468;-86
2022/03/11 04:25:14;;;;;;;8.85;5.80;;;6.90;81.60;;;;;;4976276;28;20022;-86
2022/03/11 04:27:41;;;;;;;9.63;5.30;;;6.90;81.60;;;;;;4976379;28;20057;-86
2022/03/11 04:30:08;;;;;;;8.30;5.22;;;6.90;81.60;;;;;;4976351;28;20030;-87
2022/03/11 04:32:33;;;;;;;9.02;5.60;;;6.90;81.60;;;;;;4979958;28;20035;-86
2022/03/11 04:34:59;;;;;;;9.82;5.70;;;6.80;81.60;;;;;;4998084;28;20471;-86
2022/03/11 04:37:24;;;;;;;10.15;6.22;;;6.80;81.60;;;;;;4980298;28;20037;-87
2022/03/11 04:39:50;;;;;;;7.38;5.28;;;6.80;81.60;;;;;;4980232;28;20026;-86
2022/03/11 04:42:16;;;;;;;9.13;5.07;;;6.80;81.60;;;;;;4980133;28;20069;-87
2022/03/11 04:44:42;;;;;;;8.20;5.32;;;6.80;81.60;;;;;;4997626;28;20061;-87
2022/03/11 04:47:07;;;;;;;8.82;5.75;;;6.80;81.60;;;;;;4980126;28;20498;-87
2022/03/11 04:49:33;;;;;;;8.38;5.07;;;6.80;81.70;;;;;;4980145;28;20382;-87
2022/03/11 04:51:59;;;;;;;8.13;5.40;;;6.80;81.70;;;;;;4980115;28;20030;-87
2022/03/11 04:54:25;;;;;;;7.95;5.32;;;6.80;81.70;;;;;;4997528;28;20026;-87
2022/03/11 04:56:50;;;;;;;10.05;5.50;;;6.80;81.80;;;;;;4979884;28;20084;-87
2022/03/11 04:59:16;;;;;;;7.75;5.75;;;6.70;81.70;;;;;;4980008;28;20121;-87
2022/03/11 05:01:42;;;;;;;8.48;5.53;;;6.70;81.80;;;;;;4979732;28;20056;-87
2022/03/11 05:04:07;;;;;;;8.02;4.95;;;6.70;81.70;;;;;;4979692;28;20028;-87
2022/03/11 05:06:33;;;;;;;8.27;5.07;;;6.70;81.80;;;;;;4997160;28;20023;-87
2022/03/11 05:08:58;;;;;;;9.45;5.10;;;6.70;81.90;;;;;;4979714;28;20030;-87
2022/03/11 05:11:24;;;;;;;12.27;5.60;;;6.70;81.90;;;;;;4979703;28;20389;-87
2022/03/11 05:13:50;;;;;;;9.27;5.75;;;6.70;81.90;;;;;;4979726;28;20042;-87
2022/03/11 05:16:15;;;;;;;8.30;5.30;;;6.70;81.90;;;;;;4979650;28;20058;-88
2022/03/11 05:18:41;;;;;;;9.55;5.82;;;6.70;81.90;;;;;;4996882;28;20043;-88
2022/03/11 05:21:07;;;;;;;11.25;6.03;;;6.60;81.90;;;;;;4979530;28;20073;-88
2022/03/11 05:23:32;;;;;;;9.50;5.90;;;6.60;82.00;;;;;;4979502;28;20439;-87
2022/03/11 05:25:58;;;;;;;7.72;5.20;;;6.60;81.90;;;;;;4979434;28;20403;-88
2022/03/11 05:28:24;;;;;;;8.38;5.60;;;6.60;81.90;;;;;;4979488;28;20045;-88
2022/03/11 05:30:49;;;;;;;8.10;5.28;;;6.60;82.00;;;;;;4979468;28;20030;-88
2022/03/11 05:33:15;;;;;;;12.55;5.45;;;6.60;82.00;;;;;;4979355;28;20080;-88
2022/03/11 05:35:41;;;;;;;9.05;5.75;;;6.60;82.00;;;;;;4996847;28;20076;-88
2022/03/11 05:38:07;;;;;;;10.00;5.70;;;6.60;82.00;;;;;;4979289;28;20117;-88
2022/03/11 05:40:32;;;;;;;10.85;5.25;;;6.60;82.10;;;;;;4996665;28;20470;-88
2022/03/11 05:42:58;;;;;;;9.55;5.97;;;6.60;82.10;;;;;;4995431;28;20022;-88
2022/03/11 05:45:24;;;;;;;9.07;5.45;;;6.50;82.00;;;;;;4979302;28;20019;-88
2022/03/11 05:47:49;;;;;;;11.02;5.63;;;6.50;82.20;;;;;;4979321;28;20034;-88
2022/03/11 05:50:16;;;;;;;10.02;5.63;;;6.50;82.10;;;;;;4996688;28;20105;-88
2022/03/11 05:52:42;;;;;;;8.90;6.05;;;6.50;82.20;;;;;;4996658;28;20023;-88
2022/03/11 05:55:09;;;;;;;9.30;5.72;;;6.50;82.10;;;;;;4979264;28;20026;-88
2022/03/11 05:57:35;;;;;;;8.70;6.20;;;6.50;82.20;;;;;;4979206;28;20438;-88
2022/03/11 06:00:03;;;;;;;10.55;7.13;;;6.50;82.20;;;;;;4979039;28;20023;-89
2022/03/11 06:02:29;;;;;;;10.27;7.32;;;6.50;82.20;;;;;;4979128;28;20026;-89
2022/03/11 06:04:55;;;;;;;12.90;8.07;;;6.50;82.20;;;;;;4979060;28;20497;-88
2022/03/11 06:07:21;;;;;;;13.15;8.10;;;6.50;82.20;;;;;;4978976;28;20475;-88
2022/03/11 06:09:47;;;;;;;14.85;8.70;;;6.50;82.20;;;;;;4978876;28;20027;-88
2022/03/11 06:12:12;;;;;;;12.88;8.00;;;6.50;82.20;;;;;;4996347;28;20042;-88
2022/03/11 06:14:38;;;;;;;14.85;7.95;;;6.50;82.20;;;;;;4996409;28;20060;-89
2022/03/11 06:17:04;;;;;;;13.80;8.15;;;6.50;82.20;;;;;;4978792;28;20482;-89
2022/03/11 06:19:30;;;;;;;15.10;7.57;;;6.50;82.10;;;;;;4978657;28;20129;-88
2022/03/11 06:21:57;;;;;;;14.75;8.18;;;6.50;82.00;;;;;;4978756;28;20035;-88
2022/03/11 06:24:23;;;;;;;15.23;8.82;;;6.60;82.20;;;;;;4979648;28;20029;-88
2022/03/11 06:26:49;;;;;;;14.70;8.13;;;6.60;82.00;;;;;;4978544;28;20041;-88
2022/03/11 06:29:15;;;;;;;12.95;8.40;;;6.60;81.90;;;;;;4978636;28;20018;-88
2022/03/11 06:31:40;;;;;;;14.43;7.68;;;6.70;81.90;;;;;;4978542;28;20035;-88
2022/03/11 06:34:06;;;;;;;11.75;7.53;;;6.70;81.80;;;;;;4996272;28;20026;-88
2022/03/11 06:36:34;;;;;;;13.63;8.27;;;6.70;81.90;;;;;;4995826;28;20026;-88
2022/03/11 06:39:00;;;;;;;13.13;7.90;;;6.80;81.80;;;;;;4978462;28;20022;-88
2022/03/11 06:41:26;;;;;;;15.77;8.63;;;6.80;81.80;;;;;;4995692;28;20109;-88
2022/03/11 06:43:52;;;;;;;16.80;9.45;;;6.90;81.60;;;;;;4978234;28;20052;-88
2022/03/11 06:46:18;;;;;;;14.70;8.75;;;6.90;81.50;;;;;;4995610;28;20080;-88
2022/03/11 06:48:43;;;;;;;16.13;9.13;;;7.00;81.70;;;;;;4978108;28;20406;-88
2022/03/11 06:51:09;;;;;;;13.32;8.90;;;7.10;81.70;;;;;;4995473;28;20031;-88
2022/03/11 06:53:36;;;;;;;16.23;10.15;;;7.10;81.60;;;;;;4995136;28;20023;-88
2022/03/11 06:56:01;;;;;;;16.98;9.05;;;7.20;81.30;;;;;;4978008;28;20128;-88
2022/03/11 06:58:28;;;;;;;16.15;9.45;;;7.30;81.20;;;;;;4977947;28;20069;-88
2022/03/11 07:00:54;;;;;;;15.20;9.15;;;7.30;80.90;;;;;;4977763;28;20037;-88
2022/03/11 07:03:19;;;;;;;20.67;8.77;;;7.40;80.70;;;;;;4995231;28;20019;-88
2022/03/11 07:05:45;;;;;;;16.58;9.43;;;7.50;80.60;;;;;;4977758;28;20023;-88
2022/03/11 07:08:14;;;;;;;18.13;9.80;;;7.50;80.40;;;;;;4977863;28;20076;-88
2022/03/11 07:10:39;;;;;;;15.30;8.63;;;7.60;80.30;;;;;;4995359;28;20026;-88
2022/03/11 07:13:05;;;;;;;14.70;8.80;;;7.70;80.10;;;;;;4977762;28;20118;-88
2022/03/11 07:15:31;;;;;;;13.82;9.55;;;7.70;79.90;;;;;;4977698;28;20027;-88
2022/03/11 07:17:57;;;;;;;13.93;8.50;;;7.80;79.90;;;;;;4977354;28;20030;-87
2022/03/11 07:20:23;;;;;;;13.00;8.18;;;7.80;79.90;;;;;;4994639;28;20060;-87
2022/03/11 07:22:49;;;;;;;14.85;8.40;;;7.80;79.80;;;;;;4977577;28;20113;-87
2022/03/11 07:25:15;;;;;;;14.57;9.43;;;7.80;79.80;;;;;;4977465;28;20485;-88
2022/03/11 07:27:41;;;;;;;14.27;8.63;;;7.90;79.80;;;;;;4977366;28;20022;-88
2022/03/11 07:30:09;;;;;;;12.15;8.07;;;7.90;79.80;;;;;;4978119;28;20026;-88
2022/03/11 07:32:35;;;;;;;12.60;8.32;;;7.90;79.80;;;;;;4995217;28;20378;-88
2022/03/11 07:35:01;;;;;;;15.60;8.15;;;8.00;79.80;;;;;;4977521;28;20030;-87
2022/03/11 07:37:27;;;;;;;14.18;8.02;;;8.00;80.00;;;;;;4977346;28;20164;-88
2022/03/11 07:39:52;;;;;;;15.07;8.30;;;8.10;80.00;;;;;;4994851;28;20031;-88
2022/03/11 07:42:18;;;;;;;15.00;8.35;;;8.10;79.90;;;;;;4977042;28;20482;-88
2022/03/11 07:44:44;;;;;;;12.95;7.72;;;8.20;79.90;;;;;;4977378;28;20482;-88
2022/03/11 07:47:10;;;;;;;13.70;7.90;;;8.20;79.80;;;;;;4977247;28;20030;-88
2022/03/11 07:49:35;;;;;;;14.40;8.10;;;8.30;79.70;;;;;;4995018;28;20076;-88
2022/03/11 07:52:02;;;;;;;13.65;8.15;;;8.30;79.60;;;;;;4978315;28;20109;-87
2022/03/11 07:54:28;;;;;;;13.02;8.20;;;8.40;79.60;;;;;;4977069;28;20022;-88
2022/03/11 07:56:54;;;;;;;12.23;8.25;;;8.40;79.60;;;;;;4977278;28;20556;-88
2022/03/11 07:59:19;;;;;;;13.20;8.43;;;8.40;79.50;;;;;;4977133;28;20027;-88
2022/03/11 08:01:46;;;;;;;14.05;8.45;;;8.50;79.50;;;;;;4977014;28;20092;-88
2022/03/11 08:04:13;;;;;;;15.30;8.43;;;8.50;79.50;;;;;;4994640;28;20027;-88
2022/03/11 08:06:40;;;;;;;14.07;7.97;;;8.50;79.50;;;;;;4976683;28;20390;-88
2022/03/11 08:09:05;;;;;;;15.23;8.05;;;8.60;79.50;;;;;;4976966;28;20023;-88
2022/03/11 08:11:31;;;;;;;15.63;9.68;;;8.60;79.60;;;;;;4994637;28;20037;-87
2022/03/11 08:13:57;;;;;;;13.20;9.05;;;8.70;79.50;;;;;;4994043;28;20030;-87
2022/03/11 08:16:22;;;;;;;17.05;9.35;;;8.70;80.30;;;;;;4994759;28;20026;-88
2022/03/11 08:18:48;;;;;;;12.48;8.98;;;8.70;79.90;;;;;;4976761;28;20042;-87
2022/03/11 08:21:16;;;;;;;14.07;8.88;;;8.80;79.70;;;;;;4976759;28;20478;-88
2022/03/11 08:23:43;;;;;;;13.60;8.60;;;8.80;79.90;;;;;;4976835;28;20070;-87
2022/03/11 08:26:10;;;;;;;17.40;9.63;;;8.80;79.70;;;;;;4994264;28;20046;-87
2022/03/11 08:28:37;;;;;;;14.23;8.48;;;8.90;80.00;;;;;;4976533;28;20504;-87
2022/03/11 08:31:03;;;;;;;14.13;9.20;;;8.90;79.90;;;;;;4994082;28;20528;-87
2022/03/11 08:33:30;;;;;;;14.45;9.02;;;8.90;79.80;;;;;;4976638;28;20498;-87
2022/03/11 08:35:57;;;;;;;14.88;9.30;;;8.90;79.80;;;;;;4994063;28;20442;-86
2022/03/11 08:38:22;;;;;;;17.23;9.05;;;9.00;79.90;;;;;;4993804;28;20022;-87
2022/03/11 08:40:48;;;;;;;11.75;8.30;;;9.00;79.80;;;;;;4976245;28;20030;-87
2022/03/11 08:43:14;;;;;;;13.52;8.82;;;9.00;79.90;;;;;;4993940;28;20085;-87
2022/03/11 08:45:40;;;;;;;13.32;8.95;;;9.00;79.80;;;;;;4976094;28;20023;-86
2022/03/11 08:48:06;;;;;;;13.52;8.73;;;9.10;79.90;;;;;;4976126;28;20018;-87
2022/03/11 08:50:33;;;;;;;12.95;8.63;;;9.10;79.90;;;;;;4993723;28;20135;-87
2022/03/11 08:52:59;;;;;;;14.82;8.45;;;9.10;80.00;;;;;;4993844;28;20050;-87
2022/03/11 08:55:25;;;;;;;19.52;9.10;;;9.10;80.00;;;;;;4993981;28;20026;-87
2022/03/11 08:57:51;;;;;;;12.23;7.90;;;9.20;80.00;;;;;;4976446;28;20022;-87
2022/03/11 09:00:20;;;;;;;15.60;8.90;;;9.20;80.00;;;;;;4976718;28;20031;-87
2022/03/11 09:02:46;;;;;;;14.00;8.75;;;9.20;80.00;;;;;;4994051;28;20122;-87
2022/03/11 09:05:15;;;;;;;14.25;8.55;;;9.20;80.10;;;;;;4976492;28;20030;-87
2022/03/11 09:07:40;;;;;;;12.98;8.48;;;9.20;80.00;;;;;;4977325;28;20105;-87
2022/03/11 09:10:12;;;;;;;13.27;8.38;;;9.20;80.30;;;;;;4976473;28;20453;-87
2022/03/11 09:12:40;;;;;;;13.77;8.77;;;9.30;80.30;;;;;;4994243;28;20034;-87
2022/03/11 09:15:07;;;;;;;13.32;8.55;;;9.30;80.40;;;;;;4993899;28;20022;-87
2022/03/11 09:17:33;;;;;;;14.43;7.78;;;9.30;80.40;;;;;;4978479;28;20034;-86
2022/03/11 09:20:03;;;;;;;14.30;8.43;;;9.40;80.40;;;;;;4979497;28;20050;-85
2022/03/11 09:22:29;;;;;;;14.55;8.75;;;9.40;80.50;;;;;;4979390;28;20691;-86
2022/03/11 09:24:55;;;;;;;13.75;8.50;;;9.40;80.40;;;;;;4979445;28;20027;-86
2022/03/11 09:27:23;;;;;;;12.07;8.40;;;9.40;80.30;;;;;;4979903;28;20470;-87
2022/03/11 09:29:49;;;;;;;12.73;8.52;;;9.50;80.60;;;;;;4979995;28;20098;-87
2022/03/11 09:32:15;;;;;;;13.82;9.00;;;9.50;80.80;;;;;;4979875;28;20362;-87
2022/03/11 09:34:43;;;;;;;13.75;8.63;;;9.50;81.00;;;;;;4997279;28;20126;-87
2022/03/11 09:37:09;;;;;;;15.90;9.85;;;9.50;80.80;;;;;;4979584;28;20540;-87
2022/03/11 09:39:34;;;;;;;14.18;8.82;;;9.50;81.10;;;;;;4979403;28;20034;-87
2022/03/11 09:42:02;;;;;;;15.60;9.98;;;9.50;80.80;;;;;;4979605;28;20097;-87
2022/03/11 09:44:28;;;;;;;14.02;9.05;;;9.60;81.20;;;;;;4997087;28;20530;-87
2022/03/11 09:46:54;;;;;;;14.43;8.70;;;9.60;80.90;;;;;;4997148;28;20102;-87
2022/03/11 09:49:20;;;;;;;14.10;8.32;;;9.70;81.10;;;;;;4979338;28;20077;-87
2022/03/11 09:51:47;;;;;;;15.07;8.80;;;9.70;81.10;;;;;;4996624;28;20030;-87
2022/03/11 09:54:13;;;;;;;16.27;9.70;;;9.70;81.00;;;;;;4996402;28;20113;-87
2022/03/11 09:56:40;;;;;;;15.52;9.43;;;9.70;81.10;;;;;;4996457;28;20034;-87
2022/03/11 09:59:07;;;;;;;13.93;8.63;;;9.80;81.20;;;;;;4979330;28;20030;-87
2022/03/11 10:01:33;;;;;;;15.27;8.70;;;9.80;81.00;;;;;;4979155;28;20030;-86
2022/03/11 10:04:00;;;;;;;13.52;8.40;;;9.80;81.00;;;;;;4979382;28;20410;-87
2022/03/11 10:06:43;;;;;;;15.25;8.20;;;9.80;80.70;;;;;;4978706;28;20038;-87
2022/03/11 10:09:30;;;;;;;13.57;8.75;;;9.90;80.70;;;;;;4996330;28;20030;-85
2022/03/11 10:11:57;;;;;;;12.25;7.65;;;9.90;80.90;;;;;;4978894;28;20108;-87
2022/03/11 10:14:38;;;;;;;14.60;8.73;;;9.90;80.90;;;;;;4978864;28;20394;-88
2022/03/11 10:17:17;;;;;;;13.18;8.32;;;9.90;80.90;;;;;;4978749;28;20061;-87
2022/03/11 10:19:58;;;;;;;12.35;8.27;;;10.00;81.00;;;;;;4978711;28;20105;-87
2022/03/11 10:22:24;;;;;;;13.30;8.00;;;10.00;80.80;;;;;;4996185;28;20034;-87
2022/03/11 10:24:50;;;;;;;12.40;8.25;;;10.00;80.80;;;;;;4978632;28;20026;-87
2022/03/11 10:27:16;;;;;;;13.88;8.50;;;10.10;80.80;;;;;;4996100;28;20026;-87
2022/03/11 10:29:41;;;;;;;13.63;8.65;;;10.10;80.70;;;;;;4977865;28;20433;-87
2022/03/11 10:32:07;;;;;;;12.82;8.90;;;10.10;80.90;;;;;;4978752;28;20022;-87
2022/03/11 10:34:37;;;;;;;14.73;8.05;;;10.10;80.80;;;;;;4995973;28;20034;-88
2022/03/11 10:37:08;;;;;;;13.50;8.38;;;10.10;80.70;;;;;;4996045;28;20032;-87
2022/03/11 10:39:36;;;;;;;11.75;7.95;;;10.10;80.70;;;;;;4978555;28;20031;-87
2022/03/11 10:42:27;;;;;;;11.90;7.80;;;10.20;80.80;;;;;;4978291;28;20027;-87
2022/03/11 10:45:02;;;;;;;12.88;8.25;;;10.20;80.70;;;;;;4978199;28;20026;-87
2022/03/11 10:47:30;;;;;;;14.05;8.27;;;10.20;80.80;;;;;;4978484;28;20485;-87
2022/03/11 10:49:59;;;;;;;14.52;8.10;;;10.30;80.90;;;;;;4995690;28;20022;-87
2022/03/11 10:52:32;;;;;;;11.73;7.57;;;10.30;80.80;;;;;;4978487;28;20062;-87
2022/03/11 10:54:58;;;;;;;15.45;8.43;;;10.30;80.70;;;;;;4995560;28;20030;-88
2022/03/11 10:57:38;;;;;;;13.07;9.02;;;10.30;80.70;;;;;;4977983;28;20030;-87
2022/03/11 11:00:20;;;;;;;12.35;8.45;;;10.40;80.80;;;;;;4977830;28;20034;-87
2022/03/11 11:02:47;;;;;;;12.80;8.25;;;10.40;80.80;;;;;;4977870;28;20026;-87
2022/03/11 11:05:14;;;;;;;13.18;8.02;;;10.40;80.70;;;;;;4977681;28;20033;-87
2022/03/11 11:07:41;;;;;;;14.55;9.20;;;10.40;80.70;;;;;;4995759;28;20023;-87
2022/03/11 11:10:08;;;;;;;15.95;8.60;;;10.50;80.90;;;;;;4995524;28;20092;-87
2022/03/11 11:12:34;;;;;;;16.30;8.25;;;10.50;80.70;;;;;;4995261;28;20030;-87
2022/03/11 11:15:03;;;;;;;14.25;8.85;;;10.50;80.80;;;;;;4978325;28;20030;-87
2022/03/11 11:17:30;;;;;;;14.02;8.27;;;10.50;80.90;;;;;;4977954;28;20629;-87
2022/03/11 11:19:58;;;;;;;15.10;8.07;;;10.60;80.90;;;;;;4995219;28;20525;-86
2022/03/11 11:22:28;;;;;;;13.27;8.57;;;10.60;80.70;;;;;;4977940;28;20038;-87
2022/03/11 11:24:59;;;;;;;15.07;8.95;;;10.60;80.70;;;;;;4978022;28;20516;-87
2022/03/11 11:27:26;;;;;;;13.50;8.55;;;10.70;80.70;;;;;;4977783;28;20026;-87
2022/03/11 11:29:52;;;;;;;13.23;8.43;;;10.70;80.60;;;;;;4995125;28;20110;-87
2022/03/11 11:32:19;;;;;;;12.35;8.35;;;10.70;80.40;;;;;;4977771;28;20022;-87
2022/03/11 11:34:45;;;;;;;15.30;9.07;;;10.70;80.40;;;;;;4977689;28;20011;-87
2022/03/11 11:37:39;;;;;;;13.85;8.05;;;10.80;80.40;;;;;;4977688;28;20026;-86
2022/03/11 11:40:19;;;;;;;12.20;8.27;;;10.80;80.30;;;;;;4995177;28;20109;-87
2022/03/11 11:43:13;;;;;;;14.75;8.45;;;10.80;80.20;;;;;;4978328;28;20483;-87
2022/03/11 11:45:50;;;;;;;14.52;8.35;;;10.80;80.20;;;;;;4977664;28;20568;-87
2022/03/11 11:48:43;;;;;;;13.30;8.32;;;10.80;80.90;;;;;;4977583;28;20022;-86
2022/03/11 11:51:11;;;;;;;14.82;8.60;;;10.90;80.20;;;;;;4977447;28;20026;-87
2022/03/11 11:53:40;;;;;;;13.13;8.25;;;10.80;80.10;;;;;;4977400;28;20064;-87
2022/03/11 11:56:32;;;;;;;16.00;8.27;;;10.90;80.30;;;;;;4994717;28;20019;-86
2022/03/11 11:59:02;;;;;;;14.02;8.30;;;10.90;80.30;;;;;;4989571;28;20050;-86
2022/03/11 12:01:49;;;;;;;12.13;8.00;;;10.90;80.20;;;;;;4994041;28;20057;-87
2022/03/11 12:04:21;;;;;;;11.75;7.90;;;11.00;80.30;;;;;;4976568;28;20021;-87
2022/03/11 12:06:57;;;;;;;11.48;7.97;;;11.00;80.20;;;;;;4976582;28;20034;-87
2022/03/11 12:09:39;;;;;;;15.30;7.93;;;11.00;80.10;;;;;;4976503;28;20026;-87
2022/03/11 12:15:16;;;;;;;13.23;8.27;;;11.00;80.00;;;;;;4990227;28;20034;-87
2022/03/11 12:17:59;;;;;;;11.98;7.78;;;11.10;80.10;;;;;;4976398;28;20026;-86
2022/03/11 12:20:33;;;;;;;12.50;8.27;;;11.10;80.10;;;;;;4976298;28;20050;-87
2022/03/11 12:23:03;;;;;;;18.05;8.38;;;11.10;80.00;;;;;;4976403;28;20089;-87
2022/03/11 12:25:35;;;;;;;14.57;8.75;;;11.20;79.90;;;;;;4976300;28;20200;-86
2022/03/11 12:28:10;;;;;;;12.32;7.78;;;11.10;79.80;;;;;;4976365;28;20026;-86
2022/03/11 12:30:38;;;;;;;13.57;8.68;;;11.20;79.80;;;;;;4993924;28;20019;-86
2022/03/11 12:33:10;;;;;;;16.15;8.20;;;11.10;79.70;;;;;;4976250;28;20026;-87
2022/03/11 12:35:37;;;;;;;12.68;7.88;;;11.20;79.70;;;;;;4976470;28;20022;-87
2022/03/11 12:38:04;;;;;;;14.20;8.70;;;11.20;79.50;;;;;;4976265;28;20029;-86
2022/03/11 12:40:30;;;;;;;13.10;8.18;;;11.30;79.50;;;;;;4976395;28;20026;-86
2022/03/11 12:42:59;;;;;;;12.52;7.45;;;11.30;79.30;;;;;;4976171;28;20026;-86
2022/03/11 12:45:35;;;;;;;11.27;7.80;;;11.30;79.10;;;;;;4993594;28;20116;-86
2022/03/11 12:48:01;;;;;;;16.63;8.00;;;11.40;79.00;;;;;;4993882;28;20037;-86
2022/03/11 12:50:27;;;;;;;12.38;8.13;;;11.50;78.90;;;;;;4993654;28;20026;-86
2022/03/11 12:52:56;;;;;;;13.43;7.20;;;11.50;78.70;;;;;;4995995;28;20101;-86